sensor_id;sensor_type;location;lat;lon;timestamp;P1;durP1;ratioP1;P2;durP2;ratioP2
67712;SDS011;54503;55.784;49.138;2022-12-29T00:02:12;12.95;;;3.70;;
67712;SDS011;54503;55.784;49.138;2022-12-29T00:07:31;13.30;;;4.10;;
67712;SDS011;54503;55.784;49.138;2022-12-29T00:12:36;13.05;;;4.35;;
67712;SDS011;54503;55.784;49.138;2022-12-29T00:18:01;12.80;;;4.08;;
67712;SDS011;54503;55.784;49.138;2022-12-29T00:23:08;11.07;;;3.57;;
67712;SDS011;54503;55.784;49.138;2022-12-29T00:28:32;14.33;;;3.77;;
67712;SDS011;54503;55.784;49.138;2022-12-29T00:33:57;10.68;;;3.42;;
67712;SDS011;54503;55.784;49.138;2022-12-29T00:39:22;14.47;;;3.85;;
67712;SDS011;54503;55.784;49.138;2022-12-29T00:44:46;13.60;;;3.87;;
67712;SDS011;54503;55.784;49.138;2022-12-29T00:49:51;11.97;;;4.67;;
67712;SDS011;54503;55.784;49.138;2022-12-29T00:54:57;12.47;;;3.87;;
67712;SDS011;54503;55.784;49.138;2022-12-29T01:00:03;14.03;;;3.90;;
67712;SDS011;54503;55.784;49.138;2022-12-29T01:05:09;12.37;;;4.47;;
67712;SDS011;54503;55.784;49.138;2022-12-29T01:10:23;8.93;;;3.10;;
67712;SDS011;54503;55.784;49.138;2022-12-29T01:15:28;18.80;;;4.07;;
67712;SDS011;54503;55.784;49.138;2022-12-29T01:20:47;14.30;;;4.20;;
67712;SDS011;54503;55.784;49.138;2022-12-29T01:25:52;9.83;;;3.55;;
67712;SDS011;54503;55.784;49.138;2022-12-29T01:30:59;15.93;;;4.12;;
67712;SDS011;54503;55.784;49.138;2022-12-29T01:36:17;15.15;;;4.17;;
67712;SDS011;54503;55.784;49.138;2022-12-29T01:41:22;14.13;;;3.67;;
67712;SDS011;54503;55.784;49.138;2022-12-29T01:52:06;16.23;;;4.37;;
67712;SDS011;54503;55.784;49.138;2022-12-29T01:57:12;13.65;;;4.22;;
67712;SDS011;54503;55.784;49.138;2022-12-29T02:02:32;14.23;;;4.33;;
67712;SDS011;54503;55.784;49.138;2022-12-29T02:07:37;12.60;;;4.08;;
67712;SDS011;54503;55.784;49.138;2022-12-29T02:12:56;13.28;;;3.62;;
67712;SDS011;54503;55.784;49.138;2022-12-29T02:45:47;14.03;;;3.93;;
67712;SDS011;54503;55.784;49.138;2022-12-29T02:51:07;14.40;;;4.22;;
67712;SDS011;54503;55.784;49.138;2022-12-29T02:56:11;13.22;;;3.62;;
67712;SDS011;54503;55.784;49.138;2022-12-29T03:06:47;10.98;;;3.60;;
67712;SDS011;54503;55.784;49.138;2022-12-29T03:18:02;18.33;;;4.10;;
67712;SDS011;54503;55.784;49.138;2022-12-29T03:23:25;15.80;;;4.10;;
67712;SDS011;54503;55.784;49.138;2022-12-29T03:28:33;15.28;;;4.80;;
67712;SDS011;54503;55.784;49.138;2022-12-29T03:33:38;15.95;;;4.20;;
67712;SDS011;54503;55.784;49.138;2022-12-29T03:44:38;18.00;;;4.70;;
67712;SDS011;54503;55.784;49.138;2022-12-29T03:49:57;12.78;;;3.00;;
67712;SDS011;54503;55.784;49.138;2022-12-29T03:55:02;13.20;;;3.92;;
67712;SDS011;54503;55.784;49.138;2022-12-29T04:00:08;16.45;;;4.53;;
67712;SDS011;54503;55.784;49.138;2022-12-29T04:05:14;11.00;;;2.80;;
67712;SDS011;54503;55.784;49.138;2022-12-29T04:10:19;11.70;;;4.20;;
67712;SDS011;54503;55.784;49.138;2022-12-29T04:15:38;17.73;;;4.55;;
67712;SDS011;54503;55.784;49.138;2022-12-29T04:20:57;12.95;;;4.05;;
67712;SDS011;54503;55.784;49.138;2022-12-29T04:26:02;12.15;;;3.55;;
67712;SDS011;54503;55.784;49.138;2022-12-29T04:31:08;18.80;;;4.53;;
67712;SDS011;54503;55.784;49.138;2022-12-29T04:36:27;13.50;;;3.43;;
67712;SDS011;54503;55.784;49.138;2022-12-29T04:41:46;11.95;;;2.75;;
67712;SDS011;54503;55.784;49.138;2022-12-29T04:47:06;7.35;;;2.27;;
67712;SDS011;54503;55.784;49.138;2022-12-29T04:52:11;17.20;;;4.50;;
67712;SDS011;54503;55.784;49.138;2022-12-29T04:57:15;18.32;;;4.20;;
67712;SDS011;54503;55.784;49.138;2022-12-29T05:02:20;8.57;;;3.13;;
67712;SDS011;54503;55.784;49.138;2022-12-29T05:07:51;14.63;;;4.23;;
67712;SDS011;54503;55.784;49.138;2022-12-29T05:12:57;13.25;;;4.20;;
67712;SDS011;54503;55.784;49.138;2022-12-29T05:18:16;13.40;;;4.27;;
67712;SDS011;54503;55.784;49.138;2022-12-29T05:23:35;12.73;;;3.70;;
67712;SDS011;54503;55.784;49.138;2022-12-29T05:34:33;16.00;;;3.93;;
67712;SDS011;54503;55.784;49.138;2022-12-29T05:39:38;13.95;;;3.47;;
67712;SDS011;54503;55.784;49.138;2022-12-29T05:44:43;19.03;;;6.33;;
67712;SDS011;54503;55.784;49.138;2022-12-29T05:49:48;18.12;;;4.95;;
67712;SDS011;54503;55.784;49.138;2022-12-29T05:54:54;15.43;;;4.33;;
67712;SDS011;54503;55.784;49.138;2022-12-29T06:00:13;14.77;;;4.07;;
67712;SDS011;54503;55.784;49.138;2022-12-29T06:05:23;18.02;;;4.03;;
67712;SDS011;54503;55.784;49.138;2022-12-29T06:10:42;9.33;;;3.23;;
67712;SDS011;54503;55.784;49.138;2022-12-29T06:16:02;10.72;;;3.27;;
67712;SDS011;54503;55.784;49.138;2022-12-29T06:21:26;17.27;;;4.03;;
67712;SDS011;54503;55.784;49.138;2022-12-29T06:26:31;21.30;;;4.80;;
67712;SDS011;54503;55.784;49.138;2022-12-29T06:31:36;12.33;;;4.10;;
67712;SDS011;54503;55.784;49.138;2022-12-29T06:36:41;15.13;;;4.50;;
67712;SDS011;54503;55.784;49.138;2022-12-29T06:41:46;16.25;;;3.98;;
67712;SDS011;54503;55.784;49.138;2022-12-29T06:47:05;8.38;;;2.75;;
67712;SDS011;54503;55.784;49.138;2022-12-29T06:52:24;13.23;;;4.37;;
67712;SDS011;54503;55.784;49.138;2022-12-29T06:57:29;10.70;;;2.92;;
67712;SDS011;54503;55.784;49.138;2022-12-29T07:02:48;13.20;;;4.03;;
67712;SDS011;54503;55.784;49.138;2022-12-29T07:07:54;15.25;;;4.28;;
67712;SDS011;54503;55.784;49.138;2022-12-29T07:12:59;14.80;;;4.15;;
67712;SDS011;54503;55.784;49.138;2022-12-29T07:23:29;14.53;;;3.60;;
67712;SDS011;54503;55.784;49.138;2022-12-29T07:28:48;9.77;;;3.70;;
67712;SDS011;54503;55.784;49.138;2022-12-29T07:34:08;11.48;;;3.80;;
67712;SDS011;54503;55.784;49.138;2022-12-29T07:39:27;12.75;;;3.98;;
67712;SDS011;54503;55.784;49.138;2022-12-29T07:44:33;11.03;;;3.30;;
67712;SDS011;54503;55.784;49.138;2022-12-29T07:49:38;11.00;;;3.40;;
67712;SDS011;54503;55.784;49.138;2022-12-29T07:54:44;12.43;;;3.47;;
67712;SDS011;54503;55.784;49.138;2022-12-29T07:59:49;12.43;;;3.75;;
67712;SDS011;54503;55.784;49.138;2022-12-29T08:05:08;7.53;;;2.60;;
67712;SDS011;54503;55.784;49.138;2022-12-29T08:10:27;17.33;;;4.13;;
67712;SDS011;54503;55.784;49.138;2022-12-29T08:15:32;13.05;;;3.17;;
67712;SDS011;54503;55.784;49.138;2022-12-29T08:20:38;13.57;;;3.50;;
67712;SDS011;54503;55.784;49.138;2022-12-29T08:31:23;12.70;;;3.40;;
67712;SDS011;54503;55.784;49.138;2022-12-29T08:36:42;10.97;;;3.27;;
67712;SDS011;54503;55.784;49.138;2022-12-29T08:42:01;13.55;;;3.02;;
67712;SDS011;54503;55.784;49.138;2022-12-29T08:47:08;10.13;;;3.50;;
67712;SDS011;54503;55.784;49.138;2022-12-29T08:52:14;10.98;;;3.37;;
67712;SDS011;54503;55.784;49.138;2022-12-29T08:57:31;12.25;;;3.02;;
67712;SDS011;54503;55.784;49.138;2022-12-29T09:02:36;13.55;;;3.70;;
67712;SDS011;54503;55.784;49.138;2022-12-29T09:07:55;8.43;;;2.50;;
67712;SDS011;54503;55.784;49.138;2022-12-29T09:13:15;11.40;;;3.10;;
67712;SDS011;54503;55.784;49.138;2022-12-29T09:18:35;11.80;;;2.77;;
67712;SDS011;54503;55.784;49.138;2022-12-29T09:23:54;13.32;;;3.50;;
67712;SDS011;54503;55.784;49.138;2022-12-29T09:29:00;11.05;;;3.42;;
67712;SDS011;54503;55.784;49.138;2022-12-29T09:34:05;19.27;;;3.02;;
67712;SDS011;54503;55.784;49.138;2022-12-29T09:39:24;11.53;;;3.35;;
67712;SDS011;54503;55.784;49.138;2022-12-29T09:50:23;11.75;;;3.37;;
67712;SDS011;54503;55.784;49.138;2022-12-29T10:28:50;11.38;;;2.65;;
67712;SDS011;54503;55.784;49.138;2022-12-29T10:33:57;14.20;;;2.95;;
67712;SDS011;54503;55.784;49.138;2022-12-29T10:44:31;10.67;;;2.77;;
67712;SDS011;54503;55.784;49.138;2022-12-29T10:49:39;11.20;;;3.02;;
67712;SDS011;54503;55.784;49.138;2022-12-29T11:00:23;8.88;;;2.90;;
67712;SDS011;54503;55.784;49.138;2022-12-29T11:11:03;10.58;;;3.08;;
67712;SDS011;54503;55.784;49.138;2022-12-29T11:16:11;11.95;;;2.75;;
67712;SDS011;54503;55.784;49.138;2022-12-29T11:26:54;10.70;;;2.80;;
67712;SDS011;54503;55.784;49.138;2022-12-29T11:37:55;10.65;;;3.05;;
67712;SDS011;54503;55.784;49.138;2022-12-29T11:43:01;11.00;;;3.02;;
67712;SDS011;54503;55.784;49.138;2022-12-29T11:48:07;8.73;;;2.90;;
67712;SDS011;54503;55.784;49.138;2022-12-29T11:58:39;14.07;;;3.08;;
67712;SDS011;54503;55.784;49.138;2022-12-29T12:09:23;15.53;;;3.53;;
67712;SDS011;54503;55.784;49.138;2022-12-29T12:14:45;11.60;;;2.90;;
67712;SDS011;54503;55.784;49.138;2022-12-29T12:30:44;15.72;;;2.25;;
67712;SDS011;54503;55.784;49.138;2022-12-29T12:35:53;7.00;;;2.17;;
67712;SDS011;54503;55.784;49.138;2022-12-29T12:57:53;10.70;;;2.95;;
67712;SDS011;54503;55.784;49.138;2022-12-29T13:13:46;9.47;;;2.73;;
67712;SDS011;54503;55.784;49.138;2022-12-29T13:18:52;9.15;;;2.92;;
67712;SDS011;54503;55.784;49.138;2022-12-29T13:40:40;12.20;;;3.23;;
67712;SDS011;54503;55.784;49.138;2022-12-29T13:45:50;8.55;;;2.50;;
67712;SDS011;54503;55.784;49.138;2022-12-29T13:51:18;9.60;;;3.05;;
67712;SDS011;54503;55.784;49.138;2022-12-29T13:56:26;9.90;;;2.93;;
67712;SDS011;54503;55.784;49.138;2022-12-29T14:12:49;11.05;;;3.17;;
67712;SDS011;54503;55.784;49.138;2022-12-29T14:56:31;8.93;;;2.80;;
67712;SDS011;54503;55.784;49.138;2022-12-29T15:07:02;8.28;;;2.72;;
67712;SDS011;54503;55.784;49.138;2022-12-29T15:12:35;13.83;;;2.72;;
67712;SDS011;54503;55.784;49.138;2022-12-29T15:17:39;11.33;;;3.30;;
67712;SDS011;54503;55.784;49.138;2022-12-29T15:22:46;10.73;;;3.03;;
67712;SDS011;54503;55.784;49.138;2022-12-29T15:28:11;9.58;;;3.40;;
67712;SDS011;54503;55.784;49.138;2022-12-29T15:33:18;10.63;;;3.40;;
67712;SDS011;54503;55.784;49.138;2022-12-29T15:38:37;12.13;;;3.62;;
67712;SDS011;54503;55.784;49.138;2022-12-29T15:49:08;11.03;;;2.90;;
67712;SDS011;54503;55.784;49.138;2022-12-29T15:59:45;13.53;;;3.10;;
67712;SDS011;54503;55.784;49.138;2022-12-29T16:05:14;9.90;;;3.07;;
67712;SDS011;54503;55.784;49.138;2022-12-29T16:16:02;12.78;;;3.87;;
67712;SDS011;54503;55.784;49.138;2022-12-29T16:21:23;9.00;;;3.35;;
67712;SDS011;54503;55.784;49.138;2022-12-29T16:26:29;10.13;;;3.27;;
67712;SDS011;54503;55.784;49.138;2022-12-29T16:53:39;12.45;;;3.30;;
67712;SDS011;54503;55.784;49.138;2022-12-29T17:04:38;9.03;;;3.37;;
67712;SDS011;54503;55.784;49.138;2022-12-29T17:09:43;16.75;;;4.28;;
67712;SDS011;54503;55.784;49.138;2022-12-29T17:15:05;13.93;;;3.65;;
67712;SDS011;54503;55.784;49.138;2022-12-29T17:25:33;12.18;;;3.72;;
67712;SDS011;54503;55.784;49.138;2022-12-29T17:30:40;12.65;;;3.98;;
67712;SDS011;54503;55.784;49.138;2022-12-29T17:35:59;12.15;;;3.52;;
67712;SDS011;54503;55.784;49.138;2022-12-29T17:41:18;13.72;;;4.15;;
67712;SDS011;54503;55.784;49.138;2022-12-29T17:46:24;14.50;;;4.03;;
67712;SDS011;54503;55.784;49.138;2022-12-29T17:51:29;15.40;;;3.90;;
67712;SDS011;54503;55.784;49.138;2022-12-29T17:56:34;12.23;;;3.98;;
67712;SDS011;54503;55.784;49.138;2022-12-29T18:01:39;11.93;;;3.47;;
67712;SDS011;54503;55.784;49.138;2022-12-29T18:06:58;14.15;;;4.20;;
67712;SDS011;54503;55.784;49.138;2022-12-29T18:12:04;14.80;;;4.00;;
67712;SDS011;54503;55.784;49.138;2022-12-29T18:17:24;17.35;;;4.28;;
67712;SDS011;54503;55.784;49.138;2022-12-29T18:22:30;14.07;;;4.42;;
67712;SDS011;54503;55.784;49.138;2022-12-29T18:27:36;15.60;;;3.92;;
67712;SDS011;54503;55.784;49.138;2022-12-29T18:32:41;16.48;;;4.53;;
67712;SDS011;54503;55.784;49.138;2022-12-29T18:38:00;14.47;;;4.30;;
67712;SDS011;54503;55.784;49.138;2022-12-29T18:43:19;15.98;;;4.50;;
67712;SDS011;54503;55.784;49.138;2022-12-29T18:48:24;14.68;;;4.58;;
67712;SDS011;54503;55.784;49.138;2022-12-29T18:53:30;20.80;;;5.20;;
67712;SDS011;54503;55.784;49.138;2022-12-29T18:58:48;12.50;;;4.28;;
67712;SDS011;54503;55.784;49.138;2022-12-29T19:03:53;13.83;;;4.53;;
67712;SDS011;54503;55.784;49.138;2022-12-29T19:08:58;11.67;;;4.33;;
67712;SDS011;54503;55.784;49.138;2022-12-29T19:14:17;15.85;;;4.65;;
67712;SDS011;54503;55.784;49.138;2022-12-29T19:19:36;11.50;;;4.40;;
67712;SDS011;54503;55.784;49.138;2022-12-29T19:24:55;15.13;;;4.70;;
67712;SDS011;54503;55.784;49.138;2022-12-29T19:30:01;16.23;;;4.55;;
67712;SDS011;54503;55.784;49.138;2022-12-29T19:35:07;11.27;;;4.60;;
67712;SDS011;54503;55.784;49.138;2022-12-29T19:40:13;18.60;;;5.22;;
67712;SDS011;54503;55.784;49.138;2022-12-29T19:45:19;17.57;;;4.93;;
67712;SDS011;54503;55.784;49.138;2022-12-29T19:50:24;14.70;;;4.97;;
67712;SDS011;54503;55.784;49.138;2022-12-29T19:55:43;16.20;;;5.08;;
67712;SDS011;54503;55.784;49.138;2022-12-29T20:00:49;16.00;;;5.17;;
67712;SDS011;54503;55.784;49.138;2022-12-29T20:05:54;13.25;;;4.20;;
67712;SDS011;54503;55.784;49.138;2022-12-29T20:11:01;14.13;;;4.60;;
67712;SDS011;54503;55.784;49.138;2022-12-29T20:16:09;18.62;;;5.53;;
67712;SDS011;54503;55.784;49.138;2022-12-29T20:21:25;17.05;;;5.12;;
67712;SDS011;54503;55.784;49.138;2022-12-29T20:26:30;16.75;;;5.33;;
67712;SDS011;54503;55.784;49.138;2022-12-29T20:31:37;17.30;;;4.70;;
67712;SDS011;54503;55.784;49.138;2022-12-29T20:36:56;14.43;;;4.90;;
67712;SDS011;54503;55.784;49.138;2022-12-29T20:42:15;16.03;;;4.77;;
67712;SDS011;54503;55.784;49.138;2022-12-29T20:47:34;16.65;;;4.92;;
67712;SDS011;54503;55.784;49.138;2022-12-29T20:52:39;17.00;;;4.85;;
67712;SDS011;54503;55.784;49.138;2022-12-29T20:57:44;16.82;;;5.15;;
67712;SDS011;54503;55.784;49.138;2022-12-29T21:02:49;17.25;;;5.42;;
67712;SDS011;54503;55.784;49.138;2022-12-29T21:07:54;17.70;;;4.93;;
67712;SDS011;54503;55.784;49.138;2022-12-29T21:13:14;21.20;;;5.25;;
67712;SDS011;54503;55.784;49.138;2022-12-29T21:18:19;14.60;;;4.97;;
67712;SDS011;54503;55.784;49.138;2022-12-29T21:23:24;17.62;;;5.53;;
67712;SDS011;54503;55.784;49.138;2022-12-29T21:28:30;16.90;;;4.95;;
67712;SDS011;54503;55.784;49.138;2022-12-29T21:33:36;18.73;;;5.47;;
67712;SDS011;54503;55.784;49.138;2022-12-29T21:38:42;18.65;;;5.70;;
67712;SDS011;54503;55.784;49.138;2022-12-29T21:44:01;15.32;;;4.95;;
67712;SDS011;54503;55.784;49.138;2022-12-29T21:49:25;16.52;;;4.87;;
67712;SDS011;54503;55.784;49.138;2022-12-29T21:54:30;19.10;;;5.03;;
67712;SDS011;54503;55.784;49.138;2022-12-29T21:59:55;15.87;;;5.10;;
67712;SDS011;54503;55.784;49.138;2022-12-29T22:05:20;15.70;;;5.25;;
67712;SDS011;54503;55.784;49.138;2022-12-29T22:10:45;17.15;;;5.30;;
67712;SDS011;54503;55.784;49.138;2022-12-29T22:16:10;15.23;;;4.58;;
67712;SDS011;54503;55.784;49.138;2022-12-29T22:21:15;15.98;;;5.00;;
67712;SDS011;54503;55.784;49.138;2022-12-29T22:26:20;17.70;;;4.97;;
67712;SDS011;54503;55.784;49.138;2022-12-29T22:31:25;16.50;;;4.67;;
67712;SDS011;54503;55.784;49.138;2022-12-29T22:36:31;18.52;;;5.47;;
67712;SDS011;54503;55.784;49.138;2022-12-29T22:41:42;17.52;;;5.20;;
67712;SDS011;54503;55.784;49.138;2022-12-29T22:46:47;21.35;;;5.83;;
67712;SDS011;54503;55.784;49.138;2022-12-29T22:52:06;16.77;;;4.93;;
67712;SDS011;54503;55.784;49.138;2022-12-29T22:57:11;16.00;;;4.97;;
67712;SDS011;54503;55.784;49.138;2022-12-29T23:02:16;16.42;;;5.28;;
67712;SDS011;54503;55.784;49.138;2022-12-29T23:07:22;16.10;;;5.28;;
67712;SDS011;54503;55.784;49.138;2022-12-29T23:12:28;17.25;;;5.15;;
67712;SDS011;54503;55.784;49.138;2022-12-29T23:17:34;13.43;;;4.63;;
67712;SDS011;54503;55.784;49.138;2022-12-29T23:22:53;16.62;;;5.40;;
67712;SDS011;54503;55.784;49.138;2022-12-29T23:28:12;13.62;;;4.37;;
67712;SDS011;54503;55.784;49.138;2022-12-29T23:33:17;15.30;;;5.20;;
67712;SDS011;54503;55.784;49.138;2022-12-29T23:38:22;16.70;;;5.40;;
67712;SDS011;54503;55.784;49.138;2022-12-29T23:43:27;16.77;;;5.20;;
67712;SDS011;54503;55.784;49.138;2022-12-29T23:48:32;16.17;;;4.75;;
67712;SDS011;54503;55.784;49.138;2022-12-29T23:53:51;14.50;;;4.95;;
67712;SDS011;54503;55.784;49.138;2022-12-29T23:58:56;15.30;;;5.05;;
